Todos
Telfer Airport (Telfer, Western Australia) TEF Condições meteorológicas
|
Telfer, Western Australia (YTEF)
Céu Limpo
Vento Ligeiro |
|
23 °C |
TEF Previsão da área de terminais
| Date | Time (AWST) | Flight Rules | Wind Dir. | Speed | Type | Height AGL (ft) | Visibility | Remarks | ||||||
|---|---|---|---|---|---|---|---|---|---|---|---|---|---|---|
| 05-Mai | 20:00 | VFR | 140° | 10 kt | Clouds and Visibility are OK | >= 6 miles | ||||||||
| 05-Mai | 19:00 | VFR | 140° | 10 kt | Clouds and Visibility are OK | >= 6 miles | ||||||||
Histórico recente de METAR TEF
| Date | Time (AWST) | Flight Rules | Wind Dir. | Speed | Type | Height AGL (ft) | Visibility | Temp (°C) | Temp (°F) | Dew Point (°C) | Dew Point (°F) | Rel. Humid. | Pressure | Density Altitude | Remarks |
|---|---|---|---|---|---|---|---|---|---|---|---|---|---|---|---|
| 05-Mai | 19:00 | VFR | 160° | 8 kt | 10000 meters | 23° | 73° | 0° | 32° | 22% | 1017 mb | 1.818 ft | |||
| 05-Mai | 18:00 | VFR | 160° | 8 kt | 10000 meters | 24° | 75° | -1° | 30° | 19% | 1017 mb | 1.938 ft | |||
| 05-Mai | 17:00 | VFR | 130° | 11 kt | 10000 meters | 26° | 78° | -2° | 28° | 16% | 1016 mb | 2.208 ft | |||
| 05-Mai | 16:00 | VFR | 140° | 15 kt | 10000 meters | 27° | 80° | -1° | 30° | 16% | 1015 mb | 2.357 ft | |||
| 05-Mai | 15:00 | VFR | 140° | 14 kt | 10000 meters | 27° | 80° | -2° | 28° | 15% | 1016 mb | 2.328 ft | |||
| 05-Mai | 14:00 | VFR | 130° | 12 kt | 10000 meters | 27° | 80° | -1° | 30° | 16% | 1016 mb | 2.328 ft | |||
| 05-Mai | 13:00 | VFR | 130° | 17 kt | 10000 meters | 26° | 78° | -1° | 30° | 17% | 1017 mb | 2.178 ft | |||
| 05-Mai | 12:00 | VFR | 120° | 14 kt | 10000 meters | 26° | 78° | -1° | 30° | 17% | 1017 mb | 2.178 ft | |||
| 05-Mai | 11:00 | VFR | 120° | 15 kt | 10000 meters | 24° | 75° | 2° | 35° | 24% | 1019 mb | 1.879 ft | |||
| 05-Mai | 10:00 | VFR | 120° | 15 kt | 10000 meters | 22° | 71° | 2° | 35° | 27% | 1020 mb | 1.609 ft | |||
| 05-Mai | 09:00 | VFR | 120° | 18 kt | 10000 meters | 20° | 68° | 2° | 35° | 30% | 1020 mb | 1.369 ft | |||
| 05-Mai | 08:00 | VFR | 130° | 18 kt | 10000 meters | 18° | 64° | 3° | 37° | 37% | 1020 mb | 1.129 ft | |||
| 05-Mai | 07:00 | VFR | 130° | 14 kt | 10000 meters | 14° | 57° | 2° | 35° | 44% | 1019 mb | 679 ft | |||
| 05-Mai | 06:00 | VFR | 140° | 13 kt | 10000 meters | 13° | 55° | 1° | 33° | 44% | 1019 mb | 559 ft | |||
| 05-Mai | 05:00 | VFR | 140° | 14 kt | 10000 meters | 14° | 57° | 0° | 32° | 38% | 1018 mb | 708 ft | |||
| 05-Mai | 04:00 | VFR | 140° | 11 kt | 10000 meters | 14° | 57° | 0° | 32° | 38% | 1018 mb | 708 ft | |||
| 05-Mai | 03:00 | VFR | 140° | 12 kt | 10000 meters | 15° | 59° | -1° | 30° | 33% | 1018 mb | 828 ft | |||
| 05-Mai | 02:00 | VFR | 140° | 13 kt | 10000 meters | 16° | 60° | -1° | 30° | 31% | 1018 mb | 948 ft | |||
| 05-Mai | 01:00 | VFR | 150° | 11 kt | 10000 meters | 17° | 62° | -1° | 30° | 29% | 1019 mb | 1.039 ft | |||
| 05-Mai | 00:00 | VFR | 140° | 10 kt | 10000 meters | 17° | 62° | -1° | 30° | 29% | 1019 mb | 1.039 ft | |||
| 04-Mai | 23:00 | VFR | 140° | 12 kt | 10000 meters | 18° | 64° | -1° | 30° | 28% | 1019 mb | 1.159 ft | |||
| 04-Mai | 22:00 | VFR | 150° | 12 kt | 10000 meters | 19° | 66° | -2° | 28° | 24% | 1019 mb | 1.279 ft | |||
| 04-Mai | 21:00 | VFR | 150° | 11 kt | 10000 meters | 19° | 66° | -2° | 28° | 24% | 1020 mb | 1.249 ft | |||
| 04-Mai | 20:00 | VFR | 150° | 11 kt | 10000 meters | 21° | 69° | -1° | 30° | 23% | 1019 mb | 1.519 ft |
Entrar
| Seu navegador não suporta. atualize seu navegador |
